Impacts METAR Board
IDs:

KEWR - Newark Intl, NJ, US

Updated at: 0300 UTC 17 Jul 2018
Potential Impact None Slight Moderate High
Time 16/15Z 16/16Z 16/17Z 16/18Z 16/19Z 16/20Z 16/21Z 16/22Z 16/23Z 17/00Z 17/01Z 17/02Z 17/03Z
Temp89 89 93 89 89 90 89 88 87 87 86 85 83
Dewpt72 71 70 72 72 72 72 72 73 72 72 72 72
Altim29.97 29.96 29.95 29.94 29.92 29.91 29.90 29.89 29.89 29.88 29.89 29.90 29.90
VIS10 10 10 10 10 10 10 10 10 10 10 10 10
CIG-- -- -- -- 250 250 250 250 250 250 250 250 250
CoverSCTSCTSCTSCTBKNBKNBKNBKNBKNBKNBKNBKNBKN
FltCatVFRVFRVFRVFRVFRVFRVFRVFRVFRVFRVFRVFRVFR
WX--------------------------
WDir2200220160150150150150160170190190200
WSpd9 6 7 8 8 8 10 7 9 9 7 8 10
WGst-- -- -- -- -- -- -- -- -- -- -- -- --
Raw hourly METARs
KEWR 161451Z 22009KT 10SM FEW035 SCT250 32/22 A2997 RMK AO2 SLP149 T03170222 58004
KEWR 161551Z VRB06KT 10SM SCT037 SCT250 32/22 A2996 RMK AO2 SLP146 T03170217
KEWR 161651Z 22007KT 190V260 10SM SCT039 34/21 A2995 RMK AO2 SLP143 T03390211
KEWR 161751Z 16008KT 10SM SCT045TCU 32/22 A2994 RMK AO2 SLP137 TCU OHD T03170222 10344 20256 58012
KEWR 161851Z 15008KT 120V180 10SM SCT045TCU SCT060 BKN250 32/22 A2992 RMK AO2 SLP133 TCU OHD T03170222
KEWR 161951Z 15008KT 10SM SCT045TCU SCT090 SCT140 BKN250 32/22 A2991 RMK AO2 SLP127 TCU OHD T03220222
KEWR 162051Z 15010KT 10SM FEW045TCU FEW090 BKN250 32/22 A2990 RMK AO2 SLP125 TCU OHD T03170222 56013
KEWR 162151Z 15007KT 10SM FEW045 FEW090 BKN250 31/22 A2989 RMK AO2 SLP120 CB DSNT NE MOV E T03110222
KEWR 162251Z 16009KT 10SM FEW045 FEW120 BKN250 31/23 A2989 RMK AO2 SLP120 T03060228
KEWR 162351Z 17009KT 10SM FEW045 FEW120 BKN250 31/22 A2988 RMK AO2 SLP119 T03060222 10328 20306 56005
KEWR 170051Z 19007KT 10SM FEW045 FEW100 BKN250 30/22 A2989 RMK AO2 SLP120 T03000222
KEWR 170151Z 19008KT 10SM FEW045 BKN250 29/22 A2990 RMK AO2 SLP126 T02940222
KEWR 170251Z 20010KT 10SM FEW045 BKN250 28/22 A2990 RMK AO2 SLP124 T02830222 50005



Page loaded:  03:39 UTC  |   08:39 PM Pacific  |   09:39 PM Mountain  |   10:39 PM Central  |   11:39 PM Eastern

 

ADVISORIES

FORECASTS

FORECASTS

OBSERVATIONS

USER TOOLS

ABOUT US